Friday, January 18, 2019, 2:39 AM EST
Back to Local

KTTN, Trenton Mercer County Airport

Location: Trenton, NJ, United States Lat: 40.283
Local Time: 2:39 AM EST ( 7:39 GMT) Lon: -74.817
Time Zone: US/Eastern Elev: 213 ft

Show me the last for .
Show Decoded

2019-01-18 02:24 METAR KTTN 180724Z AUTO 04004KT 2 1/2SM -SN BR BKN015 BKN019 OVC026 M02/M04
                 A3016 RMK AO2 P0000 T10221039 =
2019-01-18 01:53 METAR KTTN 180653Z AUTO 02004KT 1 1/2SM -SN BR BKN018 OVC023 M02/M04 A3017 RMK
                 AO2 SLP211 P0000 T10221039 =
2019-01-18 01:35 METAR KTTN 180635Z AUTO 01003KT 1 1/2SM -SN BR SCT012 SCT018 OVC025 M02/M04
                 A3017 RMK AO2 P0000 T10221044 =
2019-01-18 01:22 METAR KTTN 180622Z AUTO 01003KT 1 1/2SM -SN BR BKN013 OVC027 M02/M04 A3017 RMK
                 AO2 P0000 T10221044 =
2019-01-18 01:00 METAR KTTN 180600Z AUTO 35003KT 1 3/4SM -SN BR FEW016 BKN029 OVC047 M02/M04
                 A3018 RMK AO2 P0000 T10221044 =
2019-01-18 00:53 METAR KTTN 180553Z AUTO 01003KT 2 1/2SM -SN BR FEW018 BKN033 OVC047 M02/M04
                 A3018 RMK AO2 SLP217 P0000 60000 T10221044 11011 21022 58016 =
2019-01-18 00:40 METAR KTTN 180540Z AUTO 35004KT 3SM -SN FEW017 BKN033 OVC045 M02/M05 A3019 RMK
                 AO2 P0000 T10221050 =
2019-01-18 00:26 METAR KTTN 180526Z AUTO 34004KT 2SM -SN BKN023 OVC038 M02/M05 A3020 RMK AO2
                 P0000 T10221050 =
2019-01-18 00:17 METAR KTTN 180517Z AUTO 33004KT 2 1/2SM -SN SCT025 OVC038 M02/M06 A3020 RMK AO2
                 P0000 T10221056 =
2019-01-18 00:03 METAR KTTN 180503Z AUTO 33003KT 1 1/2SM -SN FEW024 BKN028 OVC034 M02/M06 A3021
                 RMK AO2 P0000 T10221056 =
2019-01-17 23:53 METAR KTTN 180453Z AUTO 34003KT 2 1/2SM -SN FEW026 OVC034 M02/M06 A3021 RMK AO2
                 SNB01 SLP226 P0000 T10171056 400171044 =
2019-01-17 22:53 METAR KTTN 180353Z AUTO 00000KT 10SM BKN039 OVC046 M01/M06 A3023 RMK AO2 SLP232
                 T10111061 =
2019-01-17 21:53 METAR KTTN 180253Z 07004KT 10SM BKN036 OVC065 M01/M07 A3023 RMK AO2 SLP233
                 T10111067 56020 =
2019-01-17 20:53 METAR KTTN 180153Z 08005KT 10SM FEW060 BKN080 OVC100 M01/M07 A3024 RMK AO2
                 SLP236 T10111072 =
2019-01-17 19:53 METAR KTTN 180053Z 11004KT 10SM OVC050 M01/M07 A3027 RMK AO2 SLP247 T10111072 =
2019-01-17 18:53 METAR KTTN 172353Z 14005KT 10SM SCT120 M01/M08 A3029 RMK AO2 SLP253 T10111078
                 10000 21011 56002 =
2019-01-17 17:53 METAR KTTN 172253Z 13007KT 10SM CLR M01/M09 A3030 RMK AO2 SLP255 T10111089 =
2019-01-17 16:53 METAR KTTN 172153Z 12008KT 10SM CLR 00/M12 A3029 RMK AO2 SLP252 T00001122 =
2019-01-17 15:53 METAR KTTN 172053Z 14006KT 10SM SCT120 00/M13 A3030 RMK AO2 SLP255 T00001128
                 55014 =
2019-01-17 14:53 METAR KTTN 171953Z 10006KT 10SM CLR 00/M13 A3029 RMK AO2 SLP254 T00001133 =
2019-01-17 13:53 METAR KTTN 171853Z 15006KT 10SM CLR 00/M14 A3033 RMK AO2 SLP267 T00001139 =
2019-01-17 12:53 METAR KTTN 171753Z 00000KT 10SM CLR M01/M14 A3034 RMK AO2 SLP270 T10061144 11006
                 21044 58023 =
2019-01-17 11:53 METAR KTTN 171653Z 00000KT 10SM CLR M01/M14 A3038 RMK AO2 SLP283 T10061144 =
2019-01-17 10:53 METAR KTTN 171553Z 06004KT 10SM CLR M01/M14 A3041 RMK AO2 SLP294 T10111144 =
2019-01-17 09:53 METAR KTTN 171453Z 01007KT 10SM CLR M02/M15 A3041 RMK AO2 SLP293 T10171150 51014
                 =
2019-01-17 08:53 METAR KTTN 171353Z 03008KT 10SM CLR M03/M14 A3040 RMK AO2 SLP289 T10281139 =
2019-01-17 07:53 METAR KTTN 171253Z 35006KT 10SM CLR M04/M13 A3038 RMK AO2 SLP284 T10391128 =
2019-01-17 06:53 METAR KTTN 171153Z 35004KT 10SM CLR M04/M12 A3037 RMK AO2 SLP279 T10391122 10006
                 21039 53019 =
2019-01-17 05:53 METAR KTTN 171053Z 33006KT 10SM CLR M03/M12 A3034 RMK AO2 SLP271 T10281122 =
2019-01-17 04:53 METAR KTTN 170953Z AUTO 36007KT 10SM CLR M02/M10 A3033 RMK AO2 SLP265 T10221100
                 =
2019-01-17 03:53 METAR KTTN 170853Z AUTO 34006KT 10SM CLR M02/M09 A3031 RMK AO2 SLP260 T10171094
                 51018 =
2019-01-17 02:53 METAR KTTN 170753Z AUTO 35008KT 10SM CLR M01/M09 A3030 RMK AO2 SLP258 T10111089
                 =

Support USWX by starting your Amazon purchase here.